createdAt,value
2018-07-06T00:03:21.754Z,19.90
2018-07-06T00:09:25.931Z,20.51
2018-07-06T00:21:39.549Z,20.20
2018-07-06T00:24:38.125Z,20.35
2018-07-06T00:33:51.541Z,19.47
2018-07-06T00:36:52.425Z,19.77
2018-07-06T00:42:51.508Z,19.83
2018-07-06T00:48:51.587Z,20.10
2018-07-06T00:54:53.492Z,18.90
2018-07-06T00:58:07.526Z,18.57
2018-07-06T01:06:20.675Z,18.68
2018-07-06T01:09:35.664Z,18.76
2018-07-06T01:15:36.805Z,19.65
2018-07-06T01:18:34.806Z,19.74
2018-07-06T01:31:07.267Z,19.40
2018-07-06T01:58:25.316Z,18.74
2018-07-06T02:01:23.869Z,18.88
2018-07-06T02:07:39.765Z,18.84
2018-07-06T02:10:50.231Z,18.80
2018-07-06T02:13:50.249Z,19.25
2018-07-06T08:30:56.325Z,18.89
2018-07-06T08:33:41.240Z,19.00
2018-07-06T08:38:48.376Z,18.85
2018-07-06T08:41:24.547Z,18.90
2018-07-06T08:43:54.704Z,18.80
2018-07-06T08:46:32.422Z,19.20
2018-07-06T08:49:09.215Z,19.20
2018-07-06T08:51:45.932Z,18.99
2018-07-06T08:54:20.806Z,19.15
2018-07-06T08:56:50.933Z,19.31
2018-07-06T08:59:21.456Z,19.46
2018-07-06T09:01:52.263Z,19.40
2018-07-06T09:04:24.049Z,19.66
2018-07-06T09:06:59.128Z,19.50
2018-07-06T09:09:38.503Z,19.44
2018-07-06T09:12:18.516Z,19.87
2018-07-06T09:15:01.782Z,19.79
2018-07-06T09:20:34.673Z,19.84
2018-07-06T09:23:39.226Z,19.93
2018-07-06T09:39:51.199Z,20.57
2018-07-06T09:57:16.681Z,20.80
2018-07-06T10:18:46.385Z,21.24
2018-07-06T10:28:01.368Z,21.92
2018-07-06T10:37:00.024Z,22.00
2018-07-06T10:42:10.236Z,22.22
2018-07-06T11:00:12.288Z,22.97
2018-07-06T11:02:44.157Z,23.37
2018-07-06T11:13:48.749Z,23.56
2018-07-06T11:16:19.562Z,24.05
2018-07-06T11:18:49.720Z,23.95
2018-07-06T11:21:19.696Z,23.86
2018-07-06T11:23:49.564Z,23.60
2018-07-06T11:29:48.481Z,23.81
2018-07-06T14:11:34.177Z,25.64
2018-07-06T14:14:07.941Z,25.55
2018-07-06T14:20:14.814Z,25.56
2018-07-06T14:22:53.297Z,25.66
2018-07-06T14:25:24.423Z,25.34
2018-07-06T14:27:54.979Z,25.42
2018-07-06T14:30:29.430Z,25.65
2018-07-06T14:33:02.196Z,25.67
2018-07-06T14:35:32.423Z,25.78
2018-07-06T14:38:08.746Z,25.82
2018-07-06T14:41:17.949Z,26.13
2018-07-06T14:43:57.285Z,26.42
2018-07-06T14:46:29.280Z,26.09
2018-07-06T14:49:01.237Z,26.28
2018-07-06T14:51:32.801Z,26.15
2018-07-06T14:54:02.771Z,26.15
2018-07-06T14:56:33.771Z,26.03
2018-07-06T14:59:03.834Z,25.82
2018-07-06T15:01:34.006Z,25.99
2018-07-06T15:04:05.994Z,26.08
2018-07-06T15:06:36.982Z,26.37
2018-07-06T15:09:09.912Z,26.52
2018-07-06T15:11:43.138Z,25.98
2018-07-06T15:14:17.308Z,25.71
2018-07-06T15:16:52.317Z,26.08
2018-07-06T15:19:31.355Z,26.37
2018-07-06T15:22:01.907Z,26.43
2018-07-06T15:24:33.792Z,26.17
2018-07-06T15:27:06.280Z,25.92
2018-07-06T15:29:39.214Z,25.60
2018-07-06T15:32:10.230Z,25.54
2018-07-06T15:34:44.772Z,25.70
2018-07-06T15:37:17.614Z,25.55
2018-07-06T15:39:54.730Z,25.68
2018-07-06T15:42:25.774Z,25.66
2018-07-06T15:44:59.494Z,25.86
2018-07-06T15:47:33.766Z,25.90
2018-07-06T15:50:03.689Z,25.79
2018-07-06T15:52:34.428Z,26.21
2018-07-06T15:55:05.682Z,25.93
2018-07-06T15:57:38.058Z,25.71
2018-07-06T16:00:10.635Z,25.48
2018-07-06T16:02:42.359Z,25.55
2018-07-06T16:05:14.177Z,25.65
2018-07-06T16:07:46.828Z,25.57
2018-07-06T16:10:17.335Z,25.95
2018-07-06T16:12:47.732Z,25.68
2018-07-06T16:15:18.390Z,25.60
2018-07-06T16:17:48.929Z,25.77
2018-07-06T16:20:21.022Z,25.49
2018-07-06T16:22:51.473Z,25.63
2018-07-06T16:25:24.693Z,25.55
2018-07-06T16:27:56.344Z,25.59
2018-07-06T16:30:28.418Z,25.55
2018-07-06T16:33:00.266Z,25.64
2018-07-06T16:35:30.097Z,25.49
2018-07-06T16:38:01.643Z,25.61
2018-07-06T16:40:32.149Z,25.75
2018-07-06T16:43:01.990Z,25.59
2018-07-06T16:45:32.356Z,25.48
2018-07-06T16:48:02.515Z,25.34
2018-07-06T16:50:32.694Z,25.14
2018-07-06T16:53:02.793Z,25.31
2018-07-06T16:55:32.924Z,25.60
2018-07-06T16:58:03.265Z,25.23
2018-07-06T17:00:33.595Z,25.16
2018-07-06T17:03:03.523Z,25.35
2018-07-06T17:05:33.562Z,25.58
2018-07-06T17:08:03.623Z,25.65
2018-07-06T17:10:33.198Z,25.86
2018-07-06T17:13:03.266Z,25.74
2018-07-06T17:15:33.385Z,25.56
2018-07-06T17:18:03.283Z,25.59
2018-07-06T17:20:33.372Z,25.56
2018-07-06T17:23:03.593Z,25.13
2018-07-06T17:25:33.655Z,25.16
2018-07-06T17:28:03.999Z,24.98
2018-07-06T17:30:34.049Z,24.92
2018-07-06T17:33:04.111Z,25.06
2018-07-06T17:35:34.092Z,24.96
2018-07-06T17:38:04.213Z,25.01
2018-07-06T17:40:34.447Z,24.87
2018-07-06T17:43:04.407Z,24.68
2018-07-06T17:45:34.459Z,25.01
2018-07-06T17:48:04.271Z,24.67
2018-07-06T17:50:34.251Z,24.62
2018-07-06T17:53:04.239Z,24.75
2018-07-06T17:55:34.199Z,24.75
2018-07-06T17:58:04.531Z,24.60
2018-07-06T18:00:34.632Z,24.60
2018-07-06T18:03:04.796Z,24.62
2018-07-06T18:05:34.599Z,24.43
2018-07-06T18:08:04.439Z,24.49
2018-07-06T18:10:34.475Z,24.51
2018-07-06T18:13:04.035Z,24.36
2018-07-06T18:15:34.087Z,24.28
2018-07-06T18:18:04.049Z,24.05
2018-07-06T18:20:34.590Z,24.20
2018-07-06T18:23:05.469Z,24.18
2018-07-06T18:25:36.326Z,24.05
2018-07-06T18:28:07.270Z,23.93
2018-07-06T18:30:37.945Z,23.90
2018-07-06T18:33:09.792Z,23.92
2018-07-06T18:35:39.590Z,23.98
2018-07-06T18:38:10.590Z,23.90
2018-07-06T18:40:41.684Z,23.78
2018-07-06T18:43:11.734Z,23.78
2018-07-06T18:45:41.721Z,23.58
2018-07-06T18:48:11.902Z,23.59
2018-07-06T18:50:41.813Z,23.78
2018-07-06T18:53:12.056Z,23.51
2018-07-06T18:55:42.447Z,23.66
2018-07-06T18:58:13.321Z,23.60
2018-07-06T19:00:43.144Z,23.46
2018-07-06T19:03:12.996Z,23.54
2018-07-06T19:05:42.928Z,23.37
2018-07-06T19:08:12.894Z,23.14
2018-07-06T19:10:42.770Z,23.30
2018-07-06T19:13:12.586Z,23.35
2018-07-06T19:15:42.466Z,23.34
2018-07-06T19:18:12.617Z,23.17
2018-07-06T19:20:42.601Z,23.10
2018-07-06T19:23:12.828Z,22.97
2018-07-06T19:25:44.339Z,23.01
2018-07-06T19:28:15.823Z,23.09
2018-07-06T19:30:47.478Z,23.00
2018-07-06T19:33:18.292Z,22.89
2018-07-06T19:35:48.793Z,22.84
2018-07-06T19:38:20.400Z,22.74
2018-07-06T19:40:51.688Z,22.94
2018-07-06T19:43:23.152Z,23.21
2018-07-06T19:45:54.148Z,23.10
2018-07-06T19:48:25.323Z,23.40
2018-07-06T19:50:55.751Z,23.53
2018-07-06T19:53:25.964Z,23.62
2018-07-06T19:55:56.220Z,23.61
2018-07-06T19:58:27.266Z,23.54
2018-07-06T20:00:57.529Z,23.50
2018-07-06T20:03:28.209Z,23.47
2018-07-06T20:05:59.064Z,23.30
2018-07-06T20:08:29.718Z,23.31
2018-07-06T20:11:00.331Z,23.49
2018-07-06T20:13:31.127Z,23.18
2018-07-06T20:16:01.952Z,23.31
2018-07-06T20:18:33.568Z,23.37
2018-07-06T20:21:05.004Z,23.17
2018-07-06T20:23:35.927Z,22.92
2018-07-06T20:26:07.400Z,22.54
2018-07-06T20:28:38.405Z,22.36
2018-07-06T20:31:08.155Z,22.50
2018-07-06T20:33:38.482Z,22.20
2018-07-06T20:36:08.682Z,22.15
2018-07-06T20:38:39.133Z,21.95
2018-07-06T20:41:09.266Z,22.30
2018-07-06T20:43:39.819Z,22.50
2018-07-06T20:46:09.960Z,22.33
2018-07-06T20:48:40.007Z,22.22
2018-07-06T20:51:11.495Z,22.19
2018-07-06T20:53:41.372Z,22.24
2018-07-06T20:56:11.212Z,21.99
2018-07-06T20:58:41.091Z,21.52
2018-07-06T21:01:10.921Z,21.58
2018-07-06T21:03:41.315Z,21.67
2018-07-06T21:06:11.545Z,21.63
2018-07-06T21:08:43.008Z,21.67
2018-07-06T21:11:14.911Z,22.03
2018-07-06T21:13:47.132Z,22.13
2018-07-06T21:16:19.362Z,22.30
2018-07-06T21:18:53.001Z,22.20
2018-07-06T21:21:26.180Z,22.20
2018-07-06T21:23:59.630Z,22.04
2018-07-06T21:26:32.008Z,22.00
2018-07-06T21:29:03.663Z,21.95
2018-07-06T21:31:37.300Z,21.58
2018-07-06T21:34:08.707Z,21.56
2018-07-06T21:36:39.988Z,21.53
2018-07-06T21:39:10.815Z,21.55
2018-07-06T21:41:40.706Z,21.48
2018-07-06T21:44:11.524Z,21.45
2018-07-06T21:46:41.739Z,21.57
2018-07-06T21:49:11.712Z,21.51
2018-07-06T21:51:41.702Z,21.07
2018-07-06T21:54:11.592Z,20.51
2018-07-06T21:56:41.499Z,20.47
2018-07-06T21:59:11.317Z,20.85
2018-07-06T22:01:41.189Z,21.24
2018-07-06T22:04:11.065Z,21.26
2018-07-06T22:06:41.245Z,20.75
2018-07-06T22:09:11.184Z,20.94
2018-07-06T22:11:41.687Z,20.61
2018-07-06T22:14:11.771Z,20.22
2018-07-06T22:16:41.749Z,20.46
2018-07-06T22:19:11.655Z,19.78
2018-07-06T22:21:42.569Z,20.59
2018-07-06T22:24:18.828Z,21.03
2018-07-06T22:26:53.887Z,20.52
2018-07-06T22:29:24.592Z,20.71
2018-07-06T22:32:07.959Z,20.43
2018-07-06T22:34:38.445Z,20.78
2018-07-06T22:39:53.133Z,19.83
2018-07-06T22:42:24.774Z,19.55
2018-07-06T22:44:55.585Z,19.80
2018-07-06T22:47:36.342Z,19.85
2018-07-06T22:50:10.359Z,19.75
2018-07-06T22:52:48.343Z,19.55
2018-07-06T22:55:27.371Z,19.98
2018-07-06T22:58:06.162Z,19.43
2018-07-06T23:00:38.069Z,19.56
2018-07-06T23:03:08.091Z,20.06
2018-07-06T23:05:39.430Z,20.13
2018-07-06T23:08:15.922Z,20.36
2018-07-06T23:10:56.221Z,20.19
2018-07-06T23:13:34.307Z,20.26
2018-07-06T23:16:07.519Z,20.42
2018-07-06T23:18:38.173Z,20.28
2018-07-06T23:21:09.406Z,20.51
2018-07-06T23:23:42.363Z,20.46
2018-07-06T23:26:25.856Z,19.87
2018-07-06T23:28:58.165Z,19.92
2018-07-06T23:31:34.504Z,19.36
2018-07-06T23:34:07.409Z,19.22
2018-07-06T23:36:36.979Z,19.07
2018-07-06T23:39:07.731Z,19.43
2018-07-06T23:41:37.682Z,19.18
2018-07-06T23:44:09.422Z,19.25
2018-07-06T23:46:43.271Z,19.46
2018-07-06T23:49:21.377Z,19.38
2018-07-06T23:51:55.808Z,19.40
2018-07-06T23:54:27.668Z,19.03
2018-07-06T23:57:05.309Z,18.92
2018-07-06T23:59:36.983Z,18.87
